Marysville, CA (95901)

12:03 AM PDT on August 29, 2014 (GMT -0700)
Loma Rica (Smith Rd) | Change Station
CLOSE
Current Station
Personal Weather Station
Location: Marysville, CA
Elevation: 256 ft
Nearby Weather Stations

Elev 256 ft 39.30 °N, 121.43 °W | Updated 5 seconds ago

Clear
Clear
69.1 °F
Feels Like 69.1 °F
N
0.0
Wind Variable Wind from ESE
Gusts 0.0 mph

Today
High -- | Low -- °F
--% Chance of Precip.
Yesterday
High -- | Low -- °F
Precip. -- in
6:31 AM 7:40 PM
Waxing Crescent, 12% visible
Pressure 30.08 in
Visibility 10.0 miles
Clouds Clear
Dew Point 53 °F
Humidity 57%
Rainfall 0.00 in
Snow Depth Not available.
UV 0 out of 12
Pollen 8.50 out of 12
Ozone Moderate
Flu Activity Not available.
METAR KBAB 290658Z AUTO 11007KT 10SM CLR 26/09 A2986 RMK AO2 SLP185 T02590087 $

More Conditions Fewer Conditions

Pressure 30.08 in
Visibility 10.0 miles
Clouds Clear
Dew Point 53 °F
Humidity 57%
Rainfall 0.00 in
Snow Depth Not available.
UV 0 out of 12
Pollen 8.50 out of 12
Ozone Moderate
Flu Activity Not available.
METAR KBAB 290658Z AUTO 11007KT 10SM CLR 26/09 A2986 RMK AO2 SLP185 T02590087 $

More Conditions Fewer Conditions

10-Day Weather Forecast

Almanac

Astronomy

Aug. 29, 2014 Rise Set
Actual Time 6:31 AM PDT 7:40 PM PDT
Civil Twilight 6:04 AM PDT 8:08 PM PDT
Nautical Twilight 5:31 AM PDT 8:41 PM PDT
Astronomical Twilight 4:56 AM PDT 9:15 PM PDT
Moon 10:24 AM PDT 9:43 PM PDT
Length of Visible Light 14h 04m
Length of Day
13h 09m
Tomorrow will be 2m 26s shorter.
Waxing Crescent, 12% of the Moon is Illuminated
Today
Waxing Crescent
Sep 2
First Quarter
Sep 8
Full
Sep 15
Last Quarter
Sep 24
New

Community

WunderPhotos

Upload Photos

1,748,197 photos uploaded!

Nearby

Air Quality

  Air Quality AQ Index Pollutant
Yesterday Unhealthy for Sensitive Groups
OZONE
Current Moderate
OZONE
Thursday Moderate
OZONE
Friday Moderate
OZONE
Saturday Moderate
OZONE

Snow Depth

Station Depth Elevation
CSS Lab 2 in 6900 ft
Rubicon #2 0 in 7500 ft
Fallen Leaf 0 in 6300 ft
Echo Peak 0 in 7800 ft
Hagan's Meadow 0 in 8000 ft

Earthquake Activity

City Distance Mag. Time & Date
Napa, California 82 miles 2.6 11:57 AM PDT
2014-08-27
The Geysers, California 78 miles 2.6 7:42 AM PDT
2014-08-27
Napa, California 82 miles 2.5 10:56 AM PDT
2014-08-26
Napa, California 82 miles 3.0 6:45 AM PDT
2014-08-26
Minimum magnitude displayed is 2.5.

Coastal Water Temperatures

Place Temperature
No Stations Reporting

Nearby Weather Stations